THA44R LSZH-VTBS
Flight info
| Callsign | THA44R |
|---|---|
| Flight time | N/A |
| Altitude | 33000 |
| Route | DEGES Z2 UMVEG DCT DIMLO DCT INVED DCT SOKRU DCT DINRO DCT UDROS UM859 KARDE UL851 TBN UM11 REBLO M11 MATAL/N0489F350 M11 LUSAL N701 LARGI B701 TUGTA A909 LEMOD N644 DI A466 SULOM M890 LKN R460 BBN/N0497F370 R460 CEA L507 IGONI DCT WILLA WILLA1C |
| Aircraft | B77W/H-SDE1E2E3FGHIJ2J3J4J5M1RWXY/LB1D1 |
Departure
| Time | 2026-05-05 23:01 |
|---|---|
| Airport | Zürich Airport (LSZH) |
Arrival
| Time | N/A |
|---|---|
| Airport | Suvarnabhumi Airport (VTBS) |
| Time | Latitude | Longitude | Altitude | Speed | Heading |
|---|---|---|---|---|---|
| 2026-05-05 22:27 | 47.46191 | 8.55398 | 1392 ft | 0 kts | 186° |
| 2026-05-05 22:49 | 47.46198 | 8.55399 | 1392 ft | 2 kts | 186° |
| 2026-05-05 22:49 | 47.46213 | 8.55401 | 1392 ft | 2 kts | 187° |
| 2026-05-05 22:49 | 47.46228 | 8.55405 | 1392 ft | 2 kts | 204° |
| 2026-05-05 22:49 | 47.46240 | 8.55417 | 1393 ft | 2 kts | 223° |
| 2026-05-05 22:50 | 47.46250 | 8.55434 | 1393 ft | 2 kts | 240° |
| 2026-05-05 22:50 | 47.46256 | 8.55453 | 1393 ft | 2 kts | 258° |
| 2026-05-05 22:50 | 47.46257 | 8.55474 | 1393 ft | 1 kts | 275° |
| 2026-05-05 22:50 | 47.46256 | 8.55482 | 1393 ft | 0 kts | 277° |
| 2026-05-05 22:53 | 47.46258 | 8.55448 | 1393 ft | 8 kts | 275° |
| 2026-05-05 22:53 | 47.46269 | 8.55300 | 1391 ft | 20 kts | 276° |
| 2026-05-05 22:53 | 47.46286 | 8.55069 | 1390 ft | 22 kts | 277° |
| 2026-05-05 22:53 | 47.46332 | 8.54875 | 1387 ft | 20 kts | 327° |
| 2026-05-05 22:54 | 47.46462 | 8.54780 | 1386 ft | 20 kts | 334° |
| 2026-05-05 22:54 | 47.46614 | 8.54678 | 1386 ft | 30 kts | 336° |
| 2026-05-05 22:54 | 47.46796 | 8.54491 | 1386 ft | 31 kts | 308° |
| 2026-05-05 22:54 | 47.46943 | 8.54319 | 1385 ft | 21 kts | 337° |
| 2026-05-05 22:55 | 47.47068 | 8.54233 | 1384 ft | 19 kts | 335° |
| 2026-05-05 22:55 | 47.47182 | 8.54154 | 1383 ft | 17 kts | 335° |
| 2026-05-05 22:55 | 47.47278 | 8.54088 | 1385 ft | 13 kts | 335° |
| 2026-05-05 22:55 | 47.47361 | 8.54031 | 1386 ft | 13 kts | 336° |
| 2026-05-05 22:56 | 47.47457 | 8.53967 | 1387 ft | 16 kts | 335° |
| 2026-05-05 22:56 | 47.47554 | 8.53899 | 1389 ft | 13 kts | 332° |
| 2026-05-05 22:56 | 47.47593 | 8.53846 | 1391 ft | 0 kts | 303° |
| 2026-05-05 22:57 | 47.47593 | 8.53845 | 1391 ft | 0 kts | 303° |
| 2026-05-05 22:57 | 47.47594 | 8.53842 | 1391 ft | 1 kts | 301° |
| 2026-05-05 22:57 | 47.47605 | 8.53800 | 1392 ft | 8 kts | 281° |
| 2026-05-05 22:58 | 47.47584 | 8.53685 | 1391 ft | 13 kts | 241° |
| 2026-05-05 22:58 | 47.47554 | 8.53616 | 1392 ft | 2 kts | 206° |
| 2026-05-05 22:58 | 47.47539 | 8.53618 | 1392 ft | 2 kts | 158° |
| 2026-05-05 22:58 | 47.47534 | 8.53621 | 1392 ft | 0 kts | 156° |
| 2026-05-05 23:00 | 47.47429 | 8.53693 | 1390 ft | 43 kts | 156° |
| 2026-05-05 23:00 | 47.46976 | 8.54002 | 1383 ft | 102 kts | 155° |
| 2026-05-05 23:00 | 47.46178 | 8.54550 | 1387 ft | 153 kts | 155° |
| 2026-05-05 23:01 | 47.45119 | 8.55281 | 1556 ft | 180 kts | 155° |
| 2026-05-05 23:01 | 47.44003 | 8.56040 | 2085 ft | 182 kts | 156° |
| 2026-05-05 23:01 | 47.42991 | 8.57175 | 2502 ft | 197 kts | 130° |
| 2026-05-05 23:01 | 47.42326 | 8.58918 | 2971 ft | 208 kts | 109° |
| 2026-05-05 23:02 | 47.42116 | 8.61079 | 3327 ft | 223 kts | 88° |
| 2026-05-05 23:02 | 47.42496 | 8.63352 | 3729 ft | 238 kts | 65° |
| 2026-05-05 23:02 | 47.43480 | 8.65358 | 4136 ft | 253 kts | 47° |
| 2026-05-05 23:02 | 47.44758 | 8.67217 | 4596 ft | 268 kts | 45° |
| 2026-05-05 23:03 | 47.45932 | 8.69374 | 5126 ft | 276 kts | 67° |
| 2026-05-05 23:03 | 47.46389 | 8.72056 | 5803 ft | 276 kts | 86° |
| 2026-05-05 23:03 | 47.46499 | 8.74898 | 6585 ft | 277 kts | 90° |
| 2026-05-05 23:03 | 47.46559 | 8.77743 | 7274 ft | 282 kts | 90° |
| 2026-05-05 23:04 | 47.46656 | 8.80640 | 8019 ft | 284 kts | 90° |
| 2026-05-05 23:04 | 47.46532 | 8.83534 | 8691 ft | 285 kts | 103° |
| 2026-05-05 23:04 | 47.46137 | 8.86408 | 9407 ft | 286 kts | 105° |
| 2026-05-05 23:04 | 47.45711 | 8.89250 | 10125 ft | 287 kts | 105° |
| 2026-05-05 23:05 | 47.45280 | 8.92178 | 10534 ft | 301 kts | 104° |
| 2026-05-05 23:05 | 47.44841 | 8.95250 | 10896 ft | 316 kts | 104° |
| 2026-05-05 23:05 | 47.44379 | 8.98490 | 11256 ft | 333 kts | 104° |
| 2026-05-05 23:05 | 47.43950 | 9.01491 | 11550 ft | 348 kts | 104° |
| 2026-05-05 23:06 | 47.43421 | 9.05165 | 11933 ft | 364 kts | 104° |
| 2026-05-05 23:06 | 47.43023 | 9.07922 | 12256 ft | 375 kts | 104° |
| 2026-05-05 23:06 | 47.42470 | 9.11745 | 12868 ft | 384 kts | 104° |
| 2026-05-05 23:06 | 47.41919 | 9.15548 | 13632 ft | 387 kts | 104° |
| 2026-05-05 23:07 | 47.41352 | 9.19453 | 14347 ft | 392 kts | 104° |
| 2026-05-05 23:07 | 47.40866 | 9.23409 | 15002 ft | 399 kts | 98° |
| 2026-05-05 23:07 | 47.40838 | 9.27581 | 15606 ft | 409 kts | 86° |
| 2026-05-05 23:07 | 47.41358 | 9.31719 | 16267 ft | 416 kts | 75° |
| 2026-05-05 23:08 | 47.42357 | 9.35756 | 16903 ft | 423 kts | 70° |
| 2026-05-05 23:08 | 47.43348 | 9.39818 | 17690 ft | 426 kts | 73° |
| 2026-05-05 23:08 | 47.44235 | 9.43891 | 18338 ft | 430 kts | 74° |
| 2026-05-05 23:08 | 47.45047 | 9.48002 | 18958 ft | 434 kts | 76° |
| 2026-05-05 23:09 | 47.45815 | 9.52295 | 19575 ft | 439 kts | 77° |
| 2026-05-05 23:09 | 47.46544 | 9.56642 | 20183 ft | 443 kts | 79° |
| 2026-05-05 23:09 | 47.46961 | 9.61067 | 20760 ft | 445 kts | 90° |
| 2026-05-05 23:09 | 47.46917 | 9.65198 | 21282 ft | 446 kts | 97° |
| 2026-05-05 23:10 | 47.46793 | 9.67930 | 21617 ft | 448 kts | 97° |
| 2026-05-05 23:10 | 47.46564 | 9.72419 | 22202 ft | 452 kts | 98° |
| 2026-05-05 23:10 | 47.46319 | 9.77054 | 22752 ft | 456 kts | 98° |
| 2026-05-05 23:10 | 47.46076 | 9.81577 | 23278 ft | 460 kts | 98° |
| 2026-05-05 23:11 | 47.45819 | 9.86272 | 23804 ft | 465 kts | 98° |
| 2026-05-05 23:11 | 47.45557 | 9.90992 | 24299 ft | 470 kts | 98° |
| 2026-05-05 23:11 | 47.45287 | 9.95813 | 24719 ft | 476 kts | 99° |
| 2026-05-05 23:11 | 47.45008 | 10.00732 | 25171 ft | 481 kts | 99° |
| 2026-05-05 23:12 | 47.44729 | 10.05604 | 25703 ft | 483 kts | 99° |
| 2026-05-05 23:12 | 47.44443 | 10.10556 | 26180 ft | 487 kts | 99° |
| 2026-05-05 23:12 | 47.44150 | 10.15592 | 26548 ft | 493 kts | 99° |
| 2026-05-05 23:12 | 47.43686 | 10.20581 | 26997 ft | 493 kts | 105° |
| 2026-05-05 23:13 | 47.43052 | 10.25423 | 27460 ft | 495 kts | 106° |
| 2026-05-05 23:13 | 47.42383 | 10.30392 | 27900 ft | 499 kts | 106° |
| 2026-05-05 23:13 | 47.41739 | 10.35156 | 28305 ft | 503 kts | 106° |
| 2026-05-05 23:13 | 47.41031 | 10.40377 | 28702 ft | 507 kts | 106° |
| 2026-05-05 23:14 | 47.40351 | 10.45372 | 29094 ft | 511 kts | 106° |
| 2026-05-05 23:14 | 47.39663 | 10.50415 | 29616 ft | 511 kts | 106° |
| 2026-05-05 23:14 | 47.38958 | 10.55542 | 30221 ft | 510 kts | 106° |
| 2026-05-05 23:14 | 47.38273 | 10.60508 | 30732 ft | 510 kts | 106° |
| 2026-05-05 23:15 | 47.37574 | 10.65552 | 31193 ft | 509 kts | 107° |
| 2026-05-05 23:15 | 47.36874 | 10.70587 | 31634 ft | 509 kts | 107° |
| 2026-05-05 23:15 | 47.36171 | 10.75624 | 32057 ft | 509 kts | 107° |
| 2026-05-05 23:15 | 47.35486 | 10.80525 | 32465 ft | 509 kts | 108° |
| 2026-05-05 23:16 | 47.34777 | 10.85574 | 32886 ft | 508 kts | 108° |
| 2026-05-05 23:16 | 47.34058 | 10.90667 | 32977 ft | 511 kts | 108° |
| 2026-05-05 23:16 | 47.32623 | 11.00810 | 32971 ft | 507 kts | 108° |
| 2026-05-05 23:17 | 47.31170 | 11.11004 | 32959 ft | 507 kts | 107° |